createdAt,value
2017-07-05T00:02:25.427Z,14.80
2017-07-05T00:04:53.058Z,14.70
2017-07-05T00:07:20.736Z,14.70
2017-07-05T00:09:48.359Z,14.60
2017-07-05T00:12:16.029Z,14.60
2017-07-05T00:14:43.659Z,14.50
2017-07-05T00:17:11.295Z,14.50
2017-07-05T00:19:38.973Z,14.50
2017-07-05T00:22:06.596Z,14.30
2017-07-05T00:24:34.260Z,14.30
2017-07-05T00:27:01.883Z,14.20
2017-07-05T00:29:29.533Z,14.20
2017-07-05T00:31:57.203Z,14.10
2017-07-05T00:34:24.836Z,14.10
2017-07-05T00:36:52.576Z,14.10
2017-07-05T00:39:20.217Z,14.10
2017-07-05T00:41:47.851Z,14.10
2017-07-05T00:44:15.537Z,14.00
2017-07-05T00:46:43.241Z,14.00
2017-07-05T00:49:10.912Z,14.00
2017-07-05T00:51:38.559Z,14.00
2017-07-05T00:54:06.193Z,14.00
2017-07-05T00:56:33.855Z,14.00
2017-07-05T00:59:01.481Z,14.00
2017-07-05T01:01:29.145Z,14.00
2017-07-05T01:03:56.776Z,14.10
2017-07-05T01:06:24.449Z,14.10
2017-07-05T01:08:52.108Z,14.10
2017-07-05T01:11:19.760Z,14.10
2017-07-05T01:13:47.447Z,14.20
2017-07-05T01:16:15.847Z,14.20
2017-07-05T01:18:43.487Z,14.10
2017-07-05T01:21:11.166Z,14.20
2017-07-05T01:23:38.802Z,14.20
2017-07-05T01:26:06.454Z,14.10
2017-07-05T01:28:34.097Z,14.20
2017-07-05T01:31:01.730Z,14.10
2017-07-05T01:33:29.407Z,14.10
2017-07-05T01:35:57.044Z,14.10
2017-07-05T01:38:24.704Z,14.20
2017-07-05T01:40:52.341Z,14.30
2017-07-05T01:43:20.106Z,14.30
2017-07-05T01:45:47.774Z,14.30
2017-07-05T01:48:15.407Z,14.30
2017-07-05T01:50:43.835Z,14.30
2017-07-05T01:53:11.473Z,14.30
2017-07-05T01:55:39.109Z,14.30
2017-07-05T01:58:06.774Z,14.40
2017-07-05T02:00:34.438Z,14.40
2017-07-05T02:03:02.113Z,14.40
2017-07-05T02:05:30.515Z,14.40
2017-07-05T02:07:58.157Z,14.40
2017-07-05T02:10:25.818Z,14.40
2017-07-05T02:12:53.500Z,14.50
2017-07-05T02:15:21.159Z,14.50
2017-07-05T02:17:49.561Z,14.50
2017-07-05T02:20:17.195Z,14.50
2017-07-05T02:22:44.868Z,14.50
2017-07-05T02:25:12.506Z,14.60
2017-07-05T02:27:40.223Z,14.60
2017-07-05T02:30:08.627Z,14.60
2017-07-05T02:32:36.265Z,14.50
2017-07-05T02:35:03.987Z,14.60
2017-07-05T02:37:31.607Z,14.60
2017-07-05T02:40:00.048Z,14.60
2017-07-05T02:42:27.676Z,14.50
2017-07-05T02:44:55.313Z,14.70
2017-07-05T02:47:23.048Z,14.70
2017-07-05T02:49:50.677Z,14.60
2017-07-05T02:52:18.342Z,14.70
2017-07-05T02:54:45.972Z,14.50
2017-07-05T02:57:14.421Z,14.60
2017-07-05T02:59:42.084Z,14.60
2017-07-05T03:02:10.484Z,14.60
2017-07-05T03:04:38.141Z,14.60
2017-07-05T03:07:05.768Z,14.60
2017-07-05T03:09:33.435Z,14.70
2017-07-05T03:12:01.108Z,14.70
2017-07-05T03:14:28.733Z,14.80
2017-07-05T03:16:56.407Z,14.70
2017-07-05T03:19:24.093Z,14.80
2017-07-05T03:21:51.731Z,14.80
2017-07-05T03:24:19.421Z,14.90
2017-07-05T03:26:47.059Z,14.90
2017-07-05T03:29:14.719Z,14.80
2017-07-05T03:31:42.356Z,14.90
2017-07-05T03:34:10.067Z,14.90
2017-07-05T03:36:37.731Z,14.80
2017-07-05T03:39:05.391Z,14.80
2017-07-05T03:41:33.104Z,14.80
2017-07-05T03:44:00.745Z,14.80
2017-07-05T03:46:28.395Z,14.80
2017-07-05T03:48:56.070Z,14.90
2017-07-05T03:51:23.695Z,15.00
2017-07-05T03:53:51.369Z,15.00
2017-07-05T03:56:19.002Z,15.00
2017-07-05T03:58:46.637Z,15.00
2017-07-05T04:01:14.440Z,14.90
2017-07-05T04:03:42.070Z,14.90
2017-07-05T04:06:09.744Z,14.90
2017-07-05T04:08:37.371Z,14.90
2017-07-05T04:11:07.738Z,14.80
2017-07-05T04:13:35.420Z,14.90
2017-07-05T04:16:03.320Z,14.90
2017-07-05T04:18:31.734Z,15.10
2017-07-05T04:20:59.358Z,15.00
2017-07-05T04:23:26.988Z,15.20
2017-07-05T04:25:55.431Z,15.50
2017-07-05T04:28:23.833Z,15.60
2017-07-05T04:30:51.523Z,15.60
2017-07-05T04:33:19.939Z,15.80
2017-07-05T04:35:47.567Z,15.80
2017-07-05T04:38:15.999Z,16.00
2017-07-05T04:40:43.640Z,15.90
2017-07-05T04:43:11.415Z,16.00
2017-07-05T04:45:39.811Z,16.20
2017-07-05T04:48:07.446Z,16.20
2017-07-05T04:50:35.104Z,16.40
2017-07-05T04:53:02.803Z,16.50
2017-07-05T04:55:30.465Z,16.60
2017-07-05T04:57:58.092Z,16.70
2017-07-05T05:00:25.739Z,16.90
2017-07-05T05:02:53.510Z,17.00
2017-07-05T05:05:21.154Z,17.30
2017-07-05T05:07:48.825Z,17.40
2017-07-05T05:10:16.458Z,17.60
2017-07-05T05:12:44.094Z,17.70
2017-07-05T05:15:12.564Z,18.00
2017-07-05T05:17:40.963Z,18.30
2017-07-05T05:20:08.624Z,18.20
2017-07-05T05:22:36.232Z,18.40
2017-07-05T05:25:04.066Z,18.50
2017-07-05T05:27:31.730Z,18.70
2017-07-05T05:29:59.345Z,19.00
2017-07-05T05:32:26.988Z,19.20
2017-07-05T05:34:54.642Z,19.10
2017-07-05T05:37:22.266Z,19.40
2017-07-05T05:39:49.909Z,19.70
2017-07-05T05:42:17.522Z,19.90
2017-07-05T05:44:45.194Z,20.10
2017-07-05T05:47:13.021Z,20.20
2017-07-05T05:49:40.655Z,20.30
2017-07-05T05:52:08.295Z,20.40
2017-07-05T05:54:35.910Z,20.50
2017-07-05T05:57:03.552Z,20.60
2017-07-05T05:59:31.169Z,20.90
2017-07-05T06:01:58.787Z,20.60
2017-07-05T06:04:26.428Z,20.70
2017-07-05T06:06:54.094Z,20.70
2017-07-05T06:09:22.540Z,20.90
2017-07-05T06:11:50.190Z,20.90
2017-07-05T06:14:18.585Z,21.80
2017-07-05T06:16:46.228Z,21.70
2017-07-05T06:19:14.004Z,22.80
2017-07-05T06:21:41.643Z,23.20
2017-07-05T06:24:09.256Z,23.20
2017-07-05T06:26:37.629Z,22.70
2017-07-05T06:29:05.283Z,22.60
2017-07-05T06:31:33.016Z,22.50
2017-07-05T06:34:01.419Z,22.80
2017-07-05T06:36:29.017Z,22.70
2017-07-05T06:38:56.651Z,22.90
2017-07-05T06:41:24.318Z,23.50
2017-07-05T06:43:52.718Z,23.10
2017-07-05T06:46:20.393Z,23.00
2017-07-05T06:48:48.012Z,22.70
2017-07-05T06:51:15.628Z,22.50
2017-07-05T06:53:43.400Z,22.30
2017-07-05T06:56:11.026Z,22.30
2017-07-05T06:58:39.425Z,21.80
2017-07-05T07:01:07.065Z,21.80
2017-07-05T07:03:34.697Z,21.80
2017-07-05T07:06:02.399Z,22.00
2017-07-05T07:08:32.550Z,22.30
2017-07-05T07:11:00.195Z,22.30
2017-07-05T07:13:27.804Z,22.30
2017-07-05T07:15:55.412Z,22.50
2017-07-05T07:18:23.055Z,22.50
2017-07-05T07:20:50.664Z,22.40
2017-07-05T07:23:18.293Z,22.30
2017-07-05T07:25:46.673Z,22.10
2017-07-05T07:28:14.315Z,22.10
2017-07-05T07:30:42.716Z,21.90
2017-07-05T07:33:10.329Z,21.80
2017-07-05T07:35:37.980Z,21.80
2017-07-05T07:38:05.597Z,21.70
2017-07-05T07:40:33.375Z,21.60
2017-07-05T07:43:01.783Z,21.20
2017-07-05T07:45:29.400Z,21.20
2017-07-05T07:47:57.043Z,21.20
2017-07-05T07:50:24.669Z,21.10
2017-07-05T07:52:53.081Z,21.10
2017-07-05T07:55:20.729Z,21.00
2017-07-05T07:57:48.342Z,21.00
2017-07-05T08:00:15.995Z,20.80
2017-07-05T08:02:43.630Z,20.70
2017-07-05T08:05:11.249Z,20.60
2017-07-05T08:07:38.912Z,20.60
2017-07-05T08:10:07.305Z,20.70
2017-07-05T08:12:34.963Z,20.70
2017-07-05T08:15:02.563Z,20.90
2017-07-05T08:17:30.944Z,20.90
2017-07-05T08:19:58.599Z,20.90
2017-07-05T08:22:26.220Z,20.80
2017-07-05T08:24:54.628Z,20.70
2017-07-05T08:27:23.000Z,20.70
2017-07-05T08:29:50.615Z,20.60
2017-07-05T08:32:18.260Z,20.70
2017-07-05T08:34:45.885Z,20.80
2017-07-05T08:37:13.515Z,20.80
2017-07-05T08:39:41.152Z,20.60
2017-07-05T08:42:08.765Z,20.60
2017-07-05T08:44:36.409Z,20.60
2017-07-05T08:47:04.084Z,20.60
2017-07-05T08:49:31.745Z,20.60
2017-07-05T08:51:59.404Z,20.50
2017-07-05T08:54:27.847Z,20.50
2017-07-05T08:56:55.483Z,20.50
2017-07-05T08:59:23.132Z,20.60
2017-07-05T09:01:50.773Z,20.70
2017-07-05T09:04:18.393Z,20.70
2017-07-05T09:06:46.014Z,20.80
2017-07-05T09:09:13.651Z,20.90
2017-07-05T09:11:42.026Z,20.90
2017-07-05T09:14:10.436Z,20.90
2017-07-05T09:16:38.056Z,20.80
2017-07-05T09:19:05.744Z,21.00
2017-07-05T09:21:33.523Z,21.00
2017-07-05T09:24:01.901Z,21.00
2017-07-05T09:26:29.561Z,20.90
2017-07-05T09:28:57.176Z,21.00
2017-07-05T09:31:24.801Z,21.10
2017-07-05T09:33:52.487Z,21.30
2017-07-05T09:36:20.178Z,21.40
2017-07-05T09:38:47.819Z,21.40
2017-07-05T09:41:15.434Z,21.80
2017-07-05T09:43:43.059Z,21.90
2017-07-05T09:46:11.604Z,21.90
2017-07-05T09:48:39.230Z,21.80
2017-07-05T09:51:06.883Z,21.90
2017-07-05T09:53:34.501Z,22.10
2017-07-05T09:56:02.104Z,22.30
2017-07-05T09:58:30.507Z,22.80
2017-07-05T10:00:58.130Z,22.80
2017-07-05T10:03:26.526Z,23.50
2017-07-05T10:05:54.122Z,23.40
2017-07-05T10:08:21.747Z,23.90
2017-07-05T10:10:49.383Z,24.20
2017-07-05T10:13:16.980Z,24.50
2017-07-05T10:15:45.376Z,24.50
2017-07-05T10:18:13.003Z,24.50
2017-07-05T10:20:40.613Z,24.90
2017-07-05T10:23:08.261Z,25.30
2017-07-05T10:25:35.880Z,25.40
2017-07-05T10:28:03.566Z,25.40
2017-07-05T10:30:31.951Z,24.70
2017-07-05T10:32:59.569Z,24.70
2017-07-05T10:35:27.212Z,24.70
2017-07-05T10:37:54.826Z,24.90
2017-07-05T10:40:22.497Z,25.20
2017-07-05T10:42:50.886Z,26.70
2017-07-05T10:45:19.255Z,27.40
2017-07-05T10:47:46.899Z,27.30
2017-07-05T10:50:15.273Z,27.00
2017-07-05T10:52:42.953Z,26.90
2017-07-05T10:55:10.561Z,26.80
2017-07-05T10:57:38.177Z,26.60
2017-07-05T11:00:05.807Z,25.80
2017-07-05T11:02:33.447Z,25.30
2017-07-05T11:05:01.109Z,25.50
2017-07-05T11:07:28.718Z,25.60
2017-07-05T11:09:56.329Z,25.70
2017-07-05T11:12:24.735Z,26.20
2017-07-05T11:14:52.375Z,26.10
2017-07-05T11:17:20.120Z,26.50
2017-07-05T11:19:47.716Z,26.90
2017-07-05T11:22:15.331Z,27.10
2017-07-05T11:24:43.010Z,27.70
2017-07-05T11:27:10.620Z,27.80
2017-07-05T11:29:38.265Z,27.50
2017-07-05T11:32:05.877Z,27.00
2017-07-05T11:34:33.478Z,26.90
2017-07-05T11:37:01.121Z,26.80
2017-07-05T11:39:28.735Z,26.70
2017-07-05T11:41:56.373Z,27.00
2017-07-05T11:44:23.985Z,27.10
2017-07-05T11:46:52.395Z,26.80
2017-07-05T11:49:20.052Z,26.70
2017-07-05T11:51:47.651Z,26.70
2017-07-05T11:54:15.284Z,26.70
2017-07-05T11:56:42.992Z,26.50
2017-07-05T11:59:10.604Z,26.20
2017-07-05T12:01:38.243Z,26.20
2017-07-05T12:04:05.876Z,26.10
2017-07-05T12:06:34.282Z,25.70
2017-07-05T12:09:01.885Z,25.60
2017-07-05T12:11:29.488Z,25.50
2017-07-05T12:13:57.127Z,25.50
2017-07-05T12:16:24.734Z,25.20
2017-07-05T12:18:53.466Z,24.70
2017-07-05T12:21:21.077Z,24.70
2017-07-05T12:23:48.694Z,24.80
2017-07-05T12:26:17.227Z,24.70
2017-07-05T12:28:44.881Z,24.60
2017-07-05T12:31:12.590Z,24.70
2017-07-05T12:33:40.206Z,24.70
2017-07-05T12:36:08.581Z,24.60
2017-07-05T12:38:36.221Z,24.50
2017-07-05T12:41:04.036Z,24.50
2017-07-05T12:43:31.676Z,24.50
2017-07-05T12:45:59.284Z,24.50
2017-07-05T12:48:26.887Z,24.50
2017-07-05T12:50:55.310Z,24.30
2017-07-05T12:53:23.111Z,24.30
2017-07-05T12:55:51.518Z,24.20
2017-07-05T12:58:19.121Z,24.20
2017-07-05T13:00:46.735Z,24.30
2017-07-05T13:03:14.476Z,24.30
2017-07-05T13:05:42.090Z,24.40
2017-07-05T13:08:09.732Z,24.60
2017-07-05T13:10:37.353Z,24.70
2017-07-05T13:13:04.955Z,25.00
2017-07-05T13:15:32.659Z,25.00
2017-07-05T13:18:00.272Z,24.40
2017-07-05T13:20:27.936Z,24.20
2017-07-05T13:22:56.329Z,23.70
2017-07-05T13:25:24.019Z,23.60
2017-07-05T13:27:51.661Z,23.70
2017-07-05T13:30:19.281Z,23.40
2017-07-05T13:32:46.921Z,23.50
2017-07-05T13:35:14.536Z,23.60
2017-07-05T13:37:42.955Z,24.10
2017-07-05T13:40:10.590Z,24.00
2017-07-05T13:42:38.198Z,24.10
2017-07-05T13:45:05.902Z,23.90
2017-07-05T13:47:33.508Z,23.80
2017-07-05T13:50:01.111Z,23.60
2017-07-05T13:52:28.773Z,23.40
2017-07-05T13:54:57.143Z,23.20
2017-07-05T13:57:24.783Z,23.10
2017-07-05T13:59:53.388Z,23.30
2017-07-05T14:02:20.999Z,23.30
2017-07-05T14:04:49.428Z,23.30
2017-07-05T14:07:17.049Z,23.20
2017-07-05T14:09:44.685Z,23.30
2017-07-05T14:12:12.352Z,23.30
2017-07-05T14:14:40.055Z,23.20
2017-07-05T14:17:07.768Z,23.40
2017-07-05T14:19:35.387Z,23.30
2017-07-05T14:22:03.055Z,23.30
2017-07-05T14:24:30.659Z,23.20
2017-07-05T14:26:58.282Z,23.20
2017-07-05T14:29:26.688Z,23.10
2017-07-05T14:31:54.432Z,23.10
2017-07-05T14:34:22.081Z,23.20
2017-07-05T14:36:49.705Z,22.90
2017-07-05T14:39:17.329Z,22.90
2017-07-05T14:41:45.755Z,22.60
2017-07-05T14:44:13.415Z,22.60
2017-07-05T14:46:41.077Z,22.70
2017-07-05T14:49:08.689Z,22.90
2017-07-05T14:51:36.306Z,23.10
2017-07-05T14:54:04.053Z,23.20
2017-07-05T14:56:31.661Z,23.20
2017-07-05T14:58:59.314Z,23.00
2017-07-05T15:01:26.925Z,22.80
2017-07-05T15:03:54.562Z,22.70
2017-07-05T15:06:22.191Z,22.80
2017-07-05T15:08:49.828Z,22.70
2017-07-05T15:11:17.471Z,22.70
2017-07-05T15:13:45.086Z,22.60
2017-07-05T15:16:13.110Z,22.70
2017-07-05T15:18:40.823Z,22.70
2017-07-05T15:21:08.444Z,22.70
2017-07-05T15:23:36.095Z,22.80
2017-07-05T15:26:04.634Z,23.10
2017-07-05T15:28:32.259Z,23.00
2017-07-05T15:30:59.920Z,23.20
2017-07-05T15:33:27.544Z,23.20
2017-07-05T15:35:55.197Z,23.00
2017-07-05T15:38:23.030Z,22.90
2017-07-05T15:40:50.753Z,23.00
2017-07-05T15:43:19.206Z,23.00
2017-07-05T15:45:46.828Z,22.90
2017-07-05T15:48:14.584Z,22.80
2017-07-05T15:50:42.220Z,22.80
2017-07-05T15:53:09.821Z,22.80
2017-07-05T15:55:37.484Z,22.80
2017-07-05T15:58:05.109Z,22.60
2017-07-05T16:00:32.770Z,22.40
2017-07-05T16:03:00.389Z,22.30
2017-07-05T16:05:28.783Z,22.30
2017-07-05T16:07:56.424Z,22.30
2017-07-05T16:10:24.112Z,22.30
2017-07-05T16:12:51.765Z,22.40
2017-07-05T16:15:19.373Z,22.30
2017-07-05T16:17:47.006Z,22.40
2017-07-05T16:20:14.684Z,22.40
2017-07-05T16:22:42.293Z,22.30
2017-07-05T16:25:10.196Z,22.10
2017-07-05T16:27:37.791Z,22.20
2017-07-05T16:30:05.496Z,22.20
2017-07-05T16:32:33.637Z,22.20
2017-07-05T16:35:01.228Z,22.10
2017-07-05T16:37:29.634Z,22.10
2017-07-05T16:39:57.255Z,22.10
2017-07-05T16:42:24.894Z,22.10
2017-07-05T16:44:53.630Z,22.00
2017-07-05T16:47:21.236Z,22.00
2017-07-05T16:49:48.894Z,21.90
2017-07-05T16:52:16.545Z,21.90
2017-07-05T16:54:44.634Z,22.00
2017-07-05T16:57:12.301Z,22.00
2017-07-05T16:59:40.079Z,22.00
2017-07-05T17:02:07.829Z,21.90
2017-07-05T17:04:35.527Z,21.90
2017-07-05T17:07:04.074Z,21.70
2017-07-05T17:09:31.751Z,21.70
2017-07-05T17:11:59.420Z,21.80
2017-07-05T17:14:28.050Z,21.70
2017-07-05T17:16:55.669Z,21.70
2017-07-05T17:19:23.336Z,21.60
2017-07-05T17:21:51.034Z,21.50
2017-07-05T17:24:18.745Z,21.40
2017-07-05T17:26:46.393Z,21.30
2017-07-05T17:29:14.090Z,21.30
2017-07-05T17:31:41.701Z,21.40
2017-07-05T17:34:09.355Z,21.20
2017-07-05T17:36:37.749Z,21.10
2017-07-05T17:39:05.388Z,21.00
2017-07-05T17:41:33.082Z,21.10
2017-07-05T17:44:00.691Z,21.10
2017-07-05T17:46:28.339Z,21.00
2017-07-05T17:48:55.953Z,21.00
2017-07-05T17:51:24.498Z,20.90
2017-07-05T17:53:52.111Z,20.90
2017-07-05T17:56:19.727Z,20.90
2017-07-05T17:58:47.359Z,20.90
2017-07-05T18:01:15.741Z,20.70
2017-07-05T18:03:43.555Z,20.70
2017-07-05T18:06:11.162Z,20.70
2017-07-05T18:08:38.760Z,20.60
2017-07-05T18:11:06.409Z,20.60
2017-07-05T18:13:34.039Z,20.60
2017-07-05T18:16:01.687Z,20.60
2017-07-05T18:18:29.319Z,20.50
2017-07-05T18:20:56.942Z,20.50
2017-07-05T18:23:24.586Z,20.40
2017-07-05T18:25:52.191Z,20.40
2017-07-05T18:28:19.853Z,20.30
2017-07-05T18:30:47.464Z,20.30
2017-07-05T18:33:15.096Z,20.20
2017-07-05T18:35:42.830Z,20.10
2017-07-05T18:38:10.450Z,20.10
2017-07-05T18:40:38.134Z,20.00
2017-07-05T18:43:05.745Z,19.90
2017-07-05T18:45:33.382Z,19.80
2017-07-05T18:48:01.038Z,19.70
2017-07-05T18:50:28.643Z,19.60
2017-07-05T18:52:57.061Z,19.40
2017-07-05T18:55:24.663Z,19.40
2017-07-05T18:57:52.301Z,19.30
2017-07-05T19:00:20.097Z,19.30
2017-07-05T19:02:47.729Z,19.10
2017-07-05T19:05:15.424Z,19.10
2017-07-05T19:07:43.821Z,18.90
2017-07-05T19:10:11.457Z,18.80
2017-07-05T19:12:39.136Z,18.80
2017-07-05T19:15:06.770Z,18.70
2017-07-05T19:17:34.439Z,18.70
2017-07-05T19:20:02.043Z,18.70
2017-07-05T19:22:29.676Z,18.50
2017-07-05T19:24:58.113Z,18.30
2017-07-05T19:27:25.748Z,18.20
2017-07-05T19:29:53.443Z,18.20
2017-07-05T19:32:21.068Z,18.10
2017-07-05T19:34:49.476Z,17.90
2017-07-05T19:37:17.154Z,17.90
2017-07-05T19:39:44.790Z,17.80
2017-07-05T19:42:12.468Z,17.80
2017-07-05T19:44:40.171Z,17.80
2017-07-05T19:47:07.800Z,17.70
2017-07-05T19:49:35.514Z,17.70
2017-07-05T19:52:03.984Z,17.50
2017-07-05T19:54:31.659Z,17.40
2017-07-05T19:56:59.295Z,17.40
2017-07-05T19:59:26.941Z,17.30
2017-07-05T20:01:54.616Z,17.20
2017-07-05T20:04:22.249Z,17.20
2017-07-05T20:06:49.987Z,17.20
2017-07-05T20:09:17.618Z,17.20
2017-07-05T20:11:46.006Z,17.10
2017-07-05T20:14:13.668Z,17.00
2017-07-05T20:16:41.308Z,17.00
2017-07-05T20:19:08.970Z,16.90
2017-07-05T20:21:36.609Z,16.80
2017-07-05T20:24:04.405Z,16.80
2017-07-05T20:26:32.081Z,16.80
2017-07-05T20:28:59.803Z,16.80
2017-07-05T20:31:28.246Z,16.80
2017-07-05T20:33:55.881Z,16.70
2017-07-05T20:36:23.530Z,16.60
2017-07-05T20:38:51.198Z,16.70
2017-07-05T20:41:18.848Z,16.60
2017-07-05T20:43:46.512Z,16.60
2017-07-05T20:46:14.968Z,16.50
2017-07-05T20:48:42.604Z,16.40
2017-07-05T20:51:10.282Z,16.40
2017-07-05T20:53:37.923Z,16.50
2017-07-05T20:56:06.397Z,16.30
2017-07-05T20:58:34.846Z,16.20
2017-07-05T21:01:03.444Z,16.20
2017-07-05T21:03:31.111Z,16.10
2017-07-05T21:05:58.753Z,16.10
2017-07-05T21:08:26.420Z,16.10
2017-07-05T21:10:54.094Z,16.10
2017-07-05T21:13:21.719Z,16.00
2017-07-05T21:15:49.398Z,15.90
2017-07-05T21:18:17.803Z,15.80
2017-07-05T21:20:45.469Z,15.80
2017-07-05T21:23:13.132Z,15.70
2017-07-05T21:25:40.766Z,15.70
2017-07-05T21:28:08.442Z,15.70
2017-07-05T21:30:36.090Z,15.60
2017-07-05T21:33:04.555Z,15.60
2017-07-05T21:35:33.047Z,15.60
2017-07-05T21:38:00.693Z,15.60
2017-07-05T21:40:28.348Z,15.70
2017-07-05T21:42:55.983Z,15.60
2017-07-05T21:45:23.663Z,15.50
2017-07-05T21:47:51.296Z,15.50
2017-07-05T21:50:18.919Z,15.30
2017-07-05T21:52:47.347Z,15.30
2017-07-05T21:55:14.974Z,15.20
2017-07-05T21:57:42.634Z,15.30
2017-07-05T22:00:10.271Z,15.20
2017-07-05T22:02:37.913Z,15.20
2017-07-05T22:05:05.598Z,15.20
2017-07-05T22:07:33.387Z,15.20
2017-07-05T22:10:01.058Z,15.20
2017-07-05T22:12:28.686Z,15.20
2017-07-05T22:14:56.321Z,15.20
2017-07-05T22:17:24.069Z,15.30
2017-07-05T22:19:51.692Z,15.20
2017-07-05T22:22:20.118Z,15.10
2017-07-05T22:24:47.750Z,15.00
2017-07-05T22:27:15.415Z,15.00
2017-07-05T22:29:43.137Z,15.00
2017-07-05T22:32:10.785Z,14.90
2017-07-05T22:34:38.863Z,15.00
2017-07-05T22:37:06.513Z,15.00
2017-07-05T22:39:34.207Z,14.90
2017-07-05T22:42:01.902Z,14.90
2017-07-05T22:44:29.541Z,14.90
2017-07-05T22:46:57.185Z,15.00
2017-07-05T22:49:24.862Z,15.00
2017-07-05T22:51:52.560Z,15.00
2017-07-05T22:54:20.197Z,14.90
2017-07-05T22:56:47.894Z,14.90
2017-07-05T22:59:15.559Z,14.80
2017-07-05T23:01:43.334Z,14.90
2017-07-05T23:04:11.014Z,14.80
2017-07-05T23:06:38.672Z,14.70
2017-07-05T23:09:06.324Z,14.70
2017-07-05T23:11:34.129Z,14.70
2017-07-05T23:14:01.764Z,14.60
2017-07-05T23:16:30.165Z,14.40
2017-07-05T23:18:57.844Z,14.40
2017-07-05T23:21:25.494Z,14.40
2017-07-05T23:23:53.283Z,14.40
2017-07-05T23:26:20.975Z,14.40
2017-07-05T23:28:48.628Z,14.30
2017-07-05T23:31:16.285Z,14.20
2017-07-05T23:33:44.048Z,14.20
2017-07-05T23:36:12.509Z,14.20
2017-07-05T23:38:40.211Z,14.20
2017-07-05T23:41:07.905Z,14.30
2017-07-05T23:43:36.315Z,14.20
2017-07-05T23:46:03.990Z,14.10
2017-07-05T23:48:31.666Z,14.10
2017-07-05T23:51:00.080Z,14.00
2017-07-05T23:53:27.721Z,13.90
2017-07-05T23:55:55.406Z,13.90
2017-07-05T23:58:23.091Z,13.90
